Time;durP1;ratioP1;P1;durP2;ratioP2;P2;SDS_P1;SDS_P2;PMS_P1;PMS_P2;Temp;Humidity;BMP_temperature;BMP_pressure;BME280_temperature;BME280_humidity;BME280_pressure;Samples;Min_cycle;Max_cycle;Signal;HPM_P1;HPM_P2
2023/10/18 00:01:00;;;;;;;13.77;8.32;;;;;;;;;;5035369;28;20233;-65
2023/10/18 00:03:30;;;;;;;13.40;7.70;;;;;;;;;;5042415;28;20045;-66
2023/10/18 00:05:57;;;;;;;13.85;7.13;;;;;;;;;;5040464;28;20042;-68
2023/10/18 00:08:24;;;;;;;15.50;8.68;;;;;;;;;;5032550;28;20131;-64
2023/10/18 00:10:53;;;;;;;11.07;7.65;;;;;;;;;;5036659;28;20106;-63
2023/10/18 00:13:23;;;;;;;12.50;7.45;;;;;;;;;;5045503;28;20045;-65
2023/10/18 00:15:55;;;;;;;13.45;8.23;;;;;;;;;;5028427;28;20133;-66
2023/10/18 00:18:21;;;;;;;15.60;7.93;;;;;;;;;;5033522;28;20052;-65
2023/10/18 00:20:57;;;;;;;14.30;7.75;;;;;;;;;;5040330;28;20049;-65
2023/10/18 00:23:24;;;;;;;12.00;7.30;;;;;;;;;;5028710;28;20049;-65
2023/10/18 00:25:50;;;;;;;12.20;7.70;;;;;;;;;;5031421;28;20041;-67
2023/10/18 00:28:16;;;;;;;12.82;8.05;;;;;;;;;;5034932;28;20096;-66
2023/10/18 00:30:43;;;;;;;11.60;7.28;;;;;;;;;;5033896;28;20444;-64
2023/10/18 00:33:10;;;;;;;15.70;8.13;;;;;;;;;;5028138;28;20820;-64
2023/10/18 00:35:39;;;;;;;14.07;8.00;;;;;;;;;;5041226;28;20533;-65
2023/10/18 00:38:09;;;;;;;20.52;9.02;;;;;;;;;;5035759;28;20495;-64
2023/10/18 00:40:36;;;;;;;15.38;8.80;;;;;;;;;;5033631;28;20091;-65
2023/10/18 00:43:11;;;;;;;15.20;8.55;;;;;;;;;;5030629;28;20052;-66
2023/10/18 00:45:37;;;;;;;;;;;;;;;;;;5033245;28;20061;-65
2023/10/18 00:48:06;;;;;;;10.73;7.10;;;;;;;;;;5045472;28;19963;-65
2023/10/18 00:50:37;;;;;;;13.18;8.15;;;;;;;;;;5037662;28;20057;-65
2023/10/18 00:53:03;;;;;;;14.45;8.55;;;;;;;;;;5029028;28;20041;-66
2023/10/18 00:55:30;;;;;;;15.05;9.13;;;;;;;;;;5042537;28;20151;-65
2023/10/18 00:57:57;;;;;;;14.82;8.15;;;;;;;;;;5034268;28;20041;-64
2023/10/18 01:00:24;;;;;;;14.07;8.52;;;;;;;;;;5047214;28;20052;-66
2023/10/18 01:02:57;;;;;;;17.48;8.43;;;;;;;;;;5039023;28;20045;-65
2023/10/18 01:05:25;;;;;;;15.00;7.22;;;;;;;;;;5036675;28;20056;-65
2023/10/18 01:07:53;;;;;;;16.70;8.30;;;;;;;;;;5028513;28;20045;-64
2023/10/18 01:10:23;;;;;;;13.18;8.05;;;;;;;;;;5035855;28;20089;-65
2023/10/18 01:12:53;;;;;;;15.00;8.02;;;;;;;;;;5037742;28;20052;-65
2023/10/18 01:15:20;;;;;;;17.05;7.72;;;;;;;;;;5031674;28;20041;-65
2023/10/18 01:17:47;;;;;;;14.23;6.95;;;;;;;;;;5030174;28;20084;-64
2023/10/18 01:23:16;;;;;;;18.25;8.05;;;;;;;;;;5044695;28;20083;-65
2023/10/18 01:25:43;;;;;;;14.23;7.90;;;;;;;;;;5047072;28;20140;-64
2023/10/18 01:28:09;;;;;;;14.30;7.75;;;;;;;;;;5047588;28;20085;-67
2023/10/18 01:30:37;;;;;;;13.73;7.53;;;;;;;;;;5047765;28;20757;-65
2023/10/18 01:33:04;;;;;;;12.82;7.38;;;;;;;;;;5045692;28;20489;-64
2023/10/18 01:35:31;;;;;;;13.05;7.53;;;;;;;;;;5031634;28;20045;-65
2023/10/18 01:38:00;;;;;;;12.23;7.72;;;;;;;;;;5035570;28;20406;-66
2023/10/18 01:42:56;;;;;;;13.57;7.20;;;;;;;;;;5044521;28;20128;-65
2023/10/18 01:45:26;;;;;;;11.65;7.43;;;;;;;;;;5049089;28;20045;-66
2023/10/18 01:47:52;;;;;;;14.45;6.93;;;;;;;;;;5037988;28;20073;-65
2023/10/18 01:50:21;;;;;;;13.25;7.30;;;;;;;;;;5046091;28;20045;-65
2023/10/18 01:52:47;;;;;;;13.07;7.85;;;;;;;;;;5048043;28;20053;-66
2023/10/18 01:55:14;;;;;;;15.23;7.80;;;;;;;;;;5045201;28;20468;-66
2023/10/18 01:57:43;;;;;;;14.70;7.65;;;;;;;;;;5040207;28;20041;-65
2023/10/18 02:00:25;;;;;;;16.33;8.05;;;;;;;;;;5035237;28;20482;-66
2023/10/18 02:02:52;;;;;;;15.82;6.90;;;;;;;;;;5043558;28;20049;-64
2023/10/18 02:05:18;;;;;;;12.10;6.47;;;;;;;;;;5037439;28;20053;-64
2023/10/18 02:07:47;;;;;;;27.08;7.75;;;;;;;;;;5043315;28;20511;-65
2023/10/18 02:10:22;;;;;;;10.13;6.88;;;;;;;;;;5033784;28;20164;-64
2023/10/18 02:12:49;;;;;;;14.18;7.75;;;;;;;;;;5030977;28;20453;-64
2023/10/18 02:15:16;;;;;;;12.95;7.88;;;;;;;;;;5046858;28;20056;-64
2023/10/18 02:17:46;;;;;;;12.93;6.68;;;;;;;;;;5033289;28;20111;-65
2023/10/18 02:20:25;;;;;;;14.10;8.07;;;;;;;;;;5044048;28;20046;-64
2023/10/18 02:23:01;;;;;;;11.90;7.13;;;;;;;;;;5035715;28;20457;-64
2023/10/18 02:25:43;;;;;;;16.05;7.38;;;;;;;;;;5047899;28;20951;-65
2023/10/18 02:28:22;;;;;;;14.45;7.28;;;;;;;;;;5037392;28;20046;-66
2023/10/18 02:30:57;;;;;;;12.27;5.97;;;;;;;;;;5034506;28;20053;-64
2023/10/18 02:33:24;;;;;;;12.60;7.22;;;;;;;;;;5039980;28;20131;-65
2023/10/18 02:35:51;;;;;;;10.65;6.72;;;;;;;;;;5035337;28;20135;-65
2023/10/18 02:38:20;;;;;;;10.63;6.57;;;;;;;;;;5032176;28;20049;-64
2023/10/18 02:40:49;;;;;;;8.98;6.75;;;;;;;;;;5041462;28;20110;-64
2023/10/18 02:43:16;;;;;;;11.85;7.20;;;;;;;;;;5039377;28;20125;-65
2023/10/18 02:45:50;;;;;;;15.32;8.52;;;;;;;;;;5030405;28;20050;-65
2023/10/18 02:48:22;;;;;;;11.80;7.55;;;;;;;;;;5036724;28;20081;-66
2023/10/18 02:50:53;;;;;;;12.50;9.13;;;;;;;;;;5035454;28;20052;-66
2023/10/18 02:53:20;;;;;;;16.88;9.32;;;;;;;;;;5038827;28;20295;-64
2023/10/18 02:55:55;;;;;;;13.50;9.15;;;;;;;;;;5041067;28;20144;-69
2023/10/18 02:58:22;;;;;;;15.40;9.52;;;;;;;;;;5037609;28;20073;-64
2023/10/18 03:00:50;;;;;;;19.13;10.32;;;;;;;;;;5035027;28;20050;-68
2023/10/18 03:03:21;;;;;;;16.33;9.20;;;;;;;;;;5042669;28;20064;-63
2023/10/18 03:05:48;;;;;;;15.98;9.68;;;;;;;;;;5036677;28;20163;-65
2023/10/18 03:08:16;;;;;;;16.70;10.00;;;;;;;;;;5038399;28;20055;-64
2023/10/18 03:10:47;;;;;;;15.68;9.18;;;;;;;;;;5032152;28;20638;-64
2023/10/18 03:13:17;;;;;;;11.98;7.40;;;;;;;;;;5038568;28;20132;-67
2023/10/18 03:15:54;;;;;;;13.98;8.23;;;;;;;;;;5049408;28;20067;-66
2023/10/18 03:18:27;;;;;;;17.27;8.65;;;;;;;;;;5050559;28;20529;-64
2023/10/18 03:20:56;;;;;;;15.93;8.10;;;;;;;;;;5036016;28;20395;-66
2023/10/18 03:23:22;;;;;;;10.60;7.47;;;;;;;;;;5033149;28;20047;-65
2023/10/18 03:25:59;;;;;;;13.95;7.95;;;;;;;;;;5031591;28;20131;-64
2023/10/18 03:28:34;;;;;;;14.55;8.10;;;;;;;;;;5048825;28;20124;-65
2023/10/18 03:31:05;;;;;;;12.70;7.72;;;;;;;;;;5049023;28;20041;-64
2023/10/18 03:33:33;;;;;;;25.83;8.65;;;;;;;;;;5041000;28;20437;-64
2023/10/18 03:36:08;;;;;;;11.80;6.97;;;;;;;;;;5036880;28;20045;-65
2023/10/18 03:38:53;;;;;;;11.18;6.55;;;;;;;;;;5041314;28;20635;-66
2023/10/18 03:41:23;;;;;;;11.77;7.25;;;;;;;;;;5029481;28;20144;-66
2023/10/18 03:43:51;;;;;;;16.48;7.35;;;;;;;;;;5034897;28;20133;-65
2023/10/18 03:46:21;;;;;;;10.93;7.53;;;;;;;;;;5035100;28;20099;-65
2023/10/18 03:48:54;;;;;;;12.75;6.88;;;;;;;;;;5039033;28;20053;-65
2023/10/18 03:51:23;;;;;;;14.85;7.60;;;;;;;;;;5033251;28;20584;-66
2023/10/18 03:53:55;;;;;;;12.25;6.93;;;;;;;;;;5028986;28;20135;-65
2023/10/18 03:56:22;;;;;;;11.43;6.95;;;;;;;;;;5029911;28;20197;-65
2023/10/18 03:58:49;;;;;;;12.50;6.40;;;;;;;;;;5040735;28;20076;-65
2023/10/18 04:01:21;;;;;;;15.07;7.57;;;;;;;;;;5035629;28;20128;-64
2023/10/18 04:03:49;;;;;;;15.65;6.85;;;;;;;;;;5031893;28;20497;-65
2023/10/18 04:06:27;;;;;;;9.00;6.53;;;;;;;;;;5040228;28;20046;-66
2023/10/18 04:08:58;;;;;;;13.02;7.88;;;;;;;;;;5037485;28;20059;-66
2023/10/18 04:11:26;;;;;;;12.95;7.35;;;;;;;;;;5029371;28;20066;-65
2023/10/18 04:13:53;;;;;;;14.10;7.15;;;;;;;;;;5039084;28;20080;-65
2023/10/18 04:16:28;;;;;;;10.60;7.35;;;;;;;;;;5034851;28;20142;-64
2023/10/18 04:18:56;;;;;;;12.90;8.15;;;;;;;;;;5039008;28;20056;-65
2023/10/18 04:21:26;;;;;;;11.98;7.40;;;;;;;;;;5044352;28;20042;-65
2023/10/18 04:23:54;;;;;;;13.50;7.55;;;;;;;;;;5039752;28;20045;-64
2023/10/18 04:26:21;;;;;;;11.13;7.05;;;;;;;;;;5048411;28;20104;-65
2023/10/18 04:28:54;;;;;;;13.32;7.00;;;;;;;;;;5060061;28;20059;-65
2023/10/18 04:31:21;;;;;;;11.88;7.15;;;;;;;;;;5038516;28;20132;-64
2023/10/18 04:33:49;;;;;;;18.38;7.88;;;;;;;;;;5030423;28;20131;-64
2023/10/18 04:36:20;;;;;;;13.55;7.55;;;;;;;;;;5035948;28;20085;-64
2023/10/18 04:38:47;;;;;;;13.80;8.20;;;;;;;;;;5031084;28;20049;-65
2023/10/18 04:41:23;;;;;;;13.32;7.32;;;;;;;;;;5044911;28;20585;-65
2023/10/18 04:46:35;;;;;;;14.50;7.57;;;;;;;;;;5045966;28;20056;-65
2023/10/18 04:54:07;;;;;;;15.32;8.43;;;;;;;;;;5038939;28;20489;-63
2023/10/18 04:56:46;;;;;;;12.93;7.93;;;;;;;;;;5031585;28;20126;-64
2023/10/18 05:04:28;;;;;;;12.20;7.22;;;;;;;;;;5045666;28;20041;-65
2023/10/18 05:06:56;;;;;;;12.55;7.47;;;;;;;;;;5039182;28;20401;-66
2023/10/18 05:09:31;;;;;;;14.38;8.07;;;;;;;;;;5033443;28;20133;-65
2023/10/18 05:11:57;;;;;;;12.43;7.57;;;;;;;;;;5040178;28;20049;-65
2023/10/18 05:17:35;;;;;;;15.75;8.18;;;;;;;;;;5043059;28;20091;-64
2023/10/18 05:22:50;;;;;;;15.77;8.27;;;;;;;;;;5050308;28;20535;-65
2023/10/18 05:27:59;;;;;;;21.40;7.43;;;;;;;;;;5051650;28;20079;-66
2023/10/18 05:30:27;;;;;;;12.05;7.30;;;;;;;;;;5049532;28;20060;-66
2023/10/18 05:35:33;;;;;;;12.88;8.10;;;;;;;;;;5031305;28;20049;-65
2023/10/18 05:38:06;;;;;;;13.80;8.13;;;;;;;;;;5043488;28;20119;-64
2023/10/18 05:43:03;;;;;;;16.83;7.90;;;;;;;;;;5035031;28;20053;-66
2023/10/18 05:45:31;;;;;;;14.30;8.55;;;;;;;;;;5046513;28;20041;-67
2023/10/18 05:48:02;;;;;;;22.70;7.82;;;;;;;;;;5038302;28;20073;-65
2023/10/18 05:50:34;;;;;;;13.70;8.13;;;;;;;;;;5039729;28;20055;-68
2023/10/18 05:53:06;;;;;;;;;;;;;;;;;;5034049;28;20103;-66
2023/10/18 05:55:38;;;;;;;17.75;7.60;;;;;;;;;;5039513;28;19924;-68
2023/10/18 05:58:05;;;;;;;16.08;8.90;;;;;;;;;;5050180;28;20053;-65
2023/10/18 06:00:33;;;;;;;17.77;9.45;;;;;;;;;;5045630;28;20052;-67
2023/10/18 06:02:59;;;;;;;20.80;8.65;;;;;;;;;;5031157;28;20121;-67
2023/10/18 06:05:33;;;;;;;17.08;9.68;;;;;;;;;;5031047;28;20049;-66
2023/10/18 06:08:01;;;;;;;18.55;9.70;;;;;;;;;;5040395;28;20740;-67
2023/10/18 06:10:27;;;;;;;17.35;9.15;;;;;;;;;;5036082;28;20068;-69
2023/10/18 06:12:57;;;;;;;14.55;8.75;;;;;;;;;;5037833;28;20462;-64
2023/10/18 06:15:38;;;;;;;12.52;8.38;;;;;;;;;;5041753;28;20053;-65
2023/10/18 06:18:09;;;;;;;18.58;10.35;;;;;;;;;;5043918;28;20044;-65
2023/10/18 06:20:41;;;;;;;16.00;10.25;;;;;;;;;;5050304;28;20466;-66
2023/10/18 06:23:36;;;;;;;;;;;;;;;;;;5047099;28;20059;-66
2023/10/18 06:25:57;;;;;;;20.85;9.90;;;;;;;;;;5050585;28;19978;-64
2023/10/18 06:28:25;;;;;;;18.90;9.75;;;;;;;;;;5050718;28;20045;-66
2023/10/18 06:30:52;;;;;;;17.65;11.10;;;;;;;;;;5046889;28;20055;-64
2023/10/18 06:33:20;;;;;;;32.10;10.90;;;;;;;;;;5048883;28;20048;-65
2023/10/18 06:35:52;;;;;;;18.25;10.90;;;;;;;;;;5050410;28;20118;-67
2023/10/18 06:38:23;;;;;;;30.48;11.95;;;;;;;;;;5038746;28;20378;-64
2023/10/18 06:41:03;;;;;;;20.83;11.32;;;;;;;;;;5038771;28;20132;-64
2023/10/18 06:43:32;;;;;;;22.17;12.18;;;;;;;;;;5030725;28;20045;-67
2023/10/18 06:45:59;;;;;;;20.92;11.90;;;;;;;;;;5041077;28;20048;-64
2023/10/18 06:48:28;;;;;;;17.67;9.93;;;;;;;;;;5050387;28;20052;-69
2023/10/18 06:50:55;;;;;;;27.50;11.57;;;;;;;;;;5050189;28;20539;-66
2023/10/18 06:53:22;;;;;;;20.75;11.57;;;;;;;;;;5049946;28;20053;-64
2023/10/18 07:00:55;;;;;;;21.00;12.07;;;;;;;;;;5041638;28;20080;-65
2023/10/18 07:03:25;;;;;;;25.23;12.75;;;;;;;;;;5034659;28;20053;-64
2023/10/18 07:05:55;;;;;;;28.52;12.20;;;;;;;;;;5031287;28;20073;-65
2023/10/18 07:08:40;;;;;;;24.20;13.18;;;;;;;;;;5047734;28;20135;-64
2023/10/18 07:11:16;;;;;;;21.50;12.35;;;;;;;;;;5040488;28;20068;-65
2023/10/18 07:13:48;;;;;;;20.77;12.40;;;;;;;;;;5034694;28;20045;-64
2023/10/18 07:21:56;;;;;;;22.35;13.95;;;;;;;;;;5048977;28;20106;-63
2023/10/18 07:24:36;;;;;;;27.30;15.32;;;;;;;;;;5043387;28;20136;-68
2023/10/18 07:27:03;;;;;;;25.35;13.68;;;;;;;;;;5031346;28;20049;-67
2023/10/18 07:29:31;;;;;;;24.95;14.48;;;;;;;;;;5041105;28;20050;-64
2023/10/18 07:31:59;;;;;;;20.90;13.38;;;;;;;;;;5034116;28;20067;-64
2023/10/18 07:34:28;;;;;;;25.88;14.20;;;;;;;;;;5043119;28;20552;-66
2023/10/18 07:36:56;;;;;;;21.52;14.15;;;;;;;;;;5042041;28;20409;-67
2023/10/18 07:39:24;;;;;;;21.35;12.35;;;;;;;;;;5047887;28;20560;-65
2023/10/18 07:41:51;;;;;;;33.13;13.52;;;;;;;;;;5033562;28;20047;-65
2023/10/18 07:44:18;;;;;;;23.38;13.57;;;;;;;;;;5048484;28;20135;-66
2023/10/18 07:46:44;;;;;;;21.10;14.55;;;;;;;;;;5048696;28;20045;-66
2023/10/18 07:49:22;;;;;;;22.38;14.43;;;;;;;;;;5047548;28;20475;-67
2023/10/18 07:51:49;;;;;;;24.10;13.88;;;;;;;;;;5053915;28;20676;-67
2023/10/18 07:54:17;;;;;;;27.00;13.68;;;;;;;;;;5043860;28;20050;-68
2023/10/18 07:56:50;;;;;;;23.55;13.70;;;;;;;;;;5032316;28;20624;-66
2023/10/18 07:59:29;;;;;;;26.60;13.82;;;;;;;;;;5034731;28;20053;-67
2023/10/18 08:02:12;;;;;;;28.52;15.07;;;;;;;;;;5031736;28;20049;-67
2023/10/18 08:04:40;;;;;;;26.08;15.38;;;;;;;;;;5045050;28;20048;-67
2023/10/18 08:07:16;;;;;;;25.35;14.63;;;;;;;;;;5039000;28;20048;-67
2023/10/18 08:09:43;;;;;;;25.30;14.85;;;;;;;;;;5044112;28;20410;-68
2023/10/18 08:12:29;;;;;;;23.23;13.25;;;;;;;;;;5043187;28;20083;-66
2023/10/18 08:14:56;;;;;;;50.80;13.63;;;;;;;;;;5031184;28;20099;-65
2023/10/18 08:22:50;;;;;;;26.55;14.23;;;;;;;;;;5031201;28;20379;-65
2023/10/18 08:25:31;;;;;;;22.67;14.65;;;;;;;;;;5038238;28;20076;-64
2023/10/18 08:28:02;;;;;;;24.73;13.65;;;;;;;;;;5048263;28;20073;-67
2023/10/18 08:33:10;;;;;;;21.65;14.00;;;;;;;;;;5036677;28;20131;-65
2023/10/18 08:35:37;;;;;;;23.40;12.57;;;;;;;;;;5038207;28;20041;-65
2023/10/18 08:38:04;;;;;;;18.52;12.73;;;;;;;;;;5048046;28;20513;-65
2023/10/18 08:43:23;;;;;;;26.80;12.88;;;;;;;;;;5048036;28;20052;-68
2023/10/18 08:45:50;;;;;;;25.85;13.07;;;;;;;;;;5044211;28;20344;-66
2023/10/18 08:48:17;;;;;;;29.58;13.65;;;;;;;;;;5028013;28;20060;-67
2023/10/18 08:50:45;;;;;;;24.83;14.10;;;;;;;;;;5028070;28;20088;-67
2023/10/18 08:53:11;;;;;;;20.90;12.52;;;;;;;;;;5034271;28;20042;-66
2023/10/18 08:55:44;;;;;;;23.45;13.02;;;;;;;;;;5031839;28;20683;-65
2023/10/18 08:58:11;;;;;;;21.08;12.40;;;;;;;;;;5048314;28;20461;-65
2023/10/18 09:03:08;;;;;;;17.77;11.77;;;;;;;;;;5032495;28;20045;-68
2023/10/18 09:05:37;;;;;;;19.45;11.88;;;;;;;;;;5032985;28;20041;-68
2023/10/18 09:08:04;;;;;;;17.05;10.75;;;;;;;;;;5041794;28;20140;-67
2023/10/18 09:15:48;;;;;;;21.00;12.07;;;;;;;;;;5048471;28;20099;-64
2023/10/18 09:18:26;;;;;;;23.35;11.10;;;;;;;;;;5036218;28;20049;-69
2023/10/18 09:20:56;;;;;;;17.77;11.20;;;;;;;;;;5052016;28;20082;-65
2023/10/18 09:23:29;;;;;;;17.25;10.60;;;;;;;;;;5051518;28;20044;-66
2023/10/18 09:26:18;;;;;;;22.05;11.38;;;;;;;;;;5040027;28;20099;-65
2023/10/18 09:28:46;;;;;;;16.60;9.88;;;;;;;;;;5051136;28;20136;-66
2023/10/18 09:31:18;;;;;;;17.13;11.48;;;;;;;;;;5040686;28;20122;-65
2023/10/18 09:33:49;;;;;;;25.33;12.05;;;;;;;;;;5051408;28;20049;-67
2023/10/18 09:36:19;;;;;;;20.63;9.88;;;;;;;;;;5050092;28;20706;-69
2023/10/18 09:38:48;;;;;;;19.27;10.80;;;;;;;;;;5051422;28;20391;-67
2023/10/18 09:41:15;;;;;;;18.67;9.73;;;;;;;;;;5051717;28;20307;-67
2023/10/18 09:43:42;;;;;;;20.45;10.90;;;;;;;;;;5052898;28;20094;-66
2023/10/18 09:46:10;;;;;;;19.85;10.43;;;;;;;;;;5051387;28;20059;-67
2023/10/18 09:48:39;;;;;;;15.52;9.52;;;;;;;;;;5066919;28;20092;-67
2023/10/18 09:51:24;;;;;;;15.35;9.25;;;;;;;;;;5042502;28;20567;-66
2023/10/18 09:53:51;;;;;;;15.25;8.77;;;;;;;;;;5050631;28;20506;-68
2023/10/18 09:56:18;;;;;;;14.20;9.00;;;;;;;;;;5050933;28;20144;-66
2023/10/18 09:58:49;;;;;;;18.73;9.75;;;;;;;;;;5051021;28;20057;-66
2023/10/18 10:01:25;;;;;;;15.40;8.45;;;;;;;;;;5051105;28;20103;-67
2023/10/18 10:03:53;;;;;;;13.25;8.65;;;;;;;;;;5049764;28;20045;-68
2023/10/18 10:06:20;;;;;;;10.90;7.57;;;;;;;;;;5043000;28;20042;-67
2023/10/18 10:09:12;;;;;;;23.45;7.65;;;;;;;;;;5043024;28;20144;-69
2023/10/18 10:11:47;;;;;;;10.15;6.70;;;;;;;;;;5050869;28;20099;-66
2023/10/18 10:14:21;;;;;;;10.65;7.05;;;;;;;;;;5050112;28;20045;-65
2023/10/18 10:16:54;;;;;;;12.18;6.95;;;;;;;;;;5036502;28;20083;-67
2023/10/18 10:19:24;;;;;;;14.20;6.80;;;;;;;;;;5031880;28;20461;-66
2023/10/18 10:21:52;;;;;;;13.02;7.28;;;;;;;;;;5045297;28;20052;-66
2023/10/18 10:24:31;;;;;;;8.23;5.55;;;;;;;;;;5041145;28;20045;-66
2023/10/18 10:29:56;;;;;;;8.70;5.28;;;;;;;;;;5049674;28;20079;-66
2023/10/18 10:32:24;;;;;;;10.15;6.82;;;;;;;;;;5049385;28;20739;-65
2023/10/18 10:35:11;;;;;;;10.57;6.70;;;;;;;;;;5050440;28;20599;-66
2023/10/18 10:37:48;;;;;;;11.02;5.90;;;;;;;;;;5065665;28;20131;-66
2023/10/18 10:40:19;;;;;;;9.70;6.00;;;;;;;;;;5048862;28;20048;-70
2023/10/18 10:42:52;;;;;;;8.50;5.70;;;;;;;;;;5065509;28;20045;-68
2023/10/18 10:45:39;;;;;;;8.38;5.07;;;;;;;;;;5065094;28;20386;-67
2023/10/18 10:48:17;;;;;;;6.78;5.40;;;;;;;;;;5049690;28;20529;-67
2023/10/18 10:51:11;;;;;;;8.05;5.30;;;;;;;;;;5049757;28;20049;-66
2023/10/18 10:53:49;;;;;;;9.10;5.43;;;;;;;;;;5049450;28;20053;-67
2023/10/18 10:56:28;;;;;;;6.78;4.30;;;;;;;;;;5049536;28;20634;-66
2023/10/18 10:59:03;;;;;;;7.35;4.55;;;;;;;;;;5049511;28;20127;-65
2023/10/18 11:01:39;;;;;;;4.93;3.63;;;;;;;;;;5049746;28;20053;-67
2023/10/18 11:04:24;;;;;;;5.07;3.75;;;;;;;;;;5049354;28;20080;-66
2023/10/18 11:06:57;;;;;;;5.55;3.65;;;;;;;;;;5042890;28;20061;-67
2023/10/18 11:09:32;;;;;;;8.43;3.92;;;;;;;;;;5034757;28;20041;-66
2023/10/18 11:12:03;;;;;;;6.38;3.58;;;;;;;;;;5048451;28;20703;-67
2023/10/18 11:14:35;;;;;;;5.15;3.72;;;;;;;;;;5043026;28;20126;-67
2023/10/18 11:19:44;;;;;;;8.52;3.60;;;;;;;;;;5031861;28;20084;-67
2023/10/18 11:22:30;;;;;;;4.55;3.38;;;;;;;;;;5048556;28;20051;-66
2023/10/18 11:24:59;;;;;;;5.32;3.83;;;;;;;;;;5048731;28;20435;-66
2023/10/18 11:27:33;;;;;;;5.38;3.55;;;;;;;;;;5048892;28;20095;-66
2023/10/18 11:30:16;;;;;;;5.65;4.00;;;;;;;;;;5048278;28;20707;-67
2023/10/18 11:32:44;;;;;;;8.93;5.07;;;;;;;;;;5046166;28;20088;-68
2023/10/18 11:35:16;;;;;;;5.80;3.70;;;;;;;;;;5046643;28;20056;-68
2023/10/18 11:37:45;;;;;;;7.15;4.30;;;;;;;;;;5048304;28;20548;-65
2023/10/18 11:40:30;;;;;;;7.28;3.90;;;;;;;;;;5047802;28;20041;-66
2023/10/18 11:43:08;;;;;;;7.05;3.88;;;;;;;;;;5048452;28;20520;-66
2023/10/18 11:45:38;;;;;;;7.95;4.47;;;;;;;;;;5045095;28;20054;-67
2023/10/18 11:48:06;;;;;;;7.28;3.70;;;;;;;;;;5040258;28;20562;-68
2023/10/18 11:50:47;;;;;;;7.80;4.13;;;;;;;;;;5048348;28;20041;-65
2023/10/18 11:53:15;;;;;;;6.88;3.95;;;;;;;;;;5048369;28;20063;-67
2023/10/18 11:55:58;;;;;;;5.88;3.45;;;;;;;;;;5048342;28;20084;-66
2023/10/18 11:58:31;;;;;;;5.38;3.70;;;;;;;;;;5048273;28;20091;-65
2023/10/18 12:01:01;;;;;;;7.13;3.42;;;;;;;;;;5034677;28;20049;-66
2023/10/18 12:03:28;;;;;;;7.13;3.97;;;;;;;;;;5048335;28;20053;-65
2023/10/18 12:05:56;;;;;;;6.50;4.10;;;;;;;;;;5043697;28;20288;-65
2023/10/18 12:08:23;;;;;;;12.45;4.03;;;;;;;;;;5036375;28;20050;-66
2023/10/18 12:10:50;;;;;;;6.38;4.32;;;;;;;;;;5036919;28;20183;-67
2023/10/18 12:13:20;;;;;;;4.47;3.15;;;;;;;;;;5047717;28;20558;-64
2023/10/18 12:15:52;;;;;;;7.20;3.30;;;;;;;;;;5048020;28;20580;-65
2023/10/18 12:18:21;;;;;;;7.22;3.70;;;;;;;;;;5054499;28;20054;-69
2023/10/18 12:20:51;;;;;;;5.82;4.15;;;;;;;;;;5027831;28;20135;-71
2023/10/18 12:23:18;;;;;;;8.30;4.30;;;;;;;;;;5027909;28;20516;-71
2023/10/18 12:25:46;;;;;;;6.00;3.75;;;;;;;;;;5027171;28;20131;-72
2023/10/18 12:28:15;;;;;;;5.65;3.35;;;;;;;;;;5027006;28;20462;-68
2023/10/18 12:30:47;;;;;;;6.82;3.95;;;;;;;;;;5040981;28;20715;-68
2023/10/18 12:33:19;;;;;;;6.75;3.13;;;;;;;;;;5047515;28;20767;-72
2023/10/18 12:35:48;;;;;;;8.55;4.45;;;;;;;;;;5043592;28;20648;-68
2023/10/18 12:38:20;;;;;;;5.50;3.58;;;;;;;;;;5047439;28;20435;-69
2023/10/18 12:40:55;;;;;;;6.07;3.97;;;;;;;;;;5041395;28;20505;-71
2023/10/18 12:43:21;;;;;;;5.68;3.20;;;;;;;;;;5029837;28;20054;-69
2023/10/18 12:45:51;;;;;;;9.40;3.53;;;;;;;;;;5031082;28;20045;-69
2023/10/18 12:48:23;;;;;;;4.57;3.42;;;;;;;;;;5036498;28;20132;-70
2023/10/18 12:50:51;;;;;;;8.82;3.75;;;;;;;;;;5045376;28;20216;-73
2023/10/18 12:58:47;;;;;;;7.22;4.13;;;;;;;;;;5035541;28;20056;-68
2023/10/18 13:01:14;;;;;;;9.57;4.43;;;;;;;;;;5031373;28;20057;-68
2023/10/18 13:03:44;;;;;;;8.32;3.95;;;;;;;;;;5034754;28;20551;-71
2023/10/18 13:06:17;;;;;;;8.85;4.43;;;;;;;;;;5035328;28;20045;-71
2023/10/18 13:09:05;;;;;;;7.75;3.88;;;;;;;;;;5033716;28;20132;-71
2023/10/18 13:14:11;;;;;;;6.10;3.50;;;;;;;;;;5027792;28;20132;-70
2023/10/18 13:16:37;;;;;;;8.70;4.90;;;;;;;;;;5040489;28;20046;-70
2023/10/18 13:19:04;;;;;;;9.38;4.22;;;;;;;;;;5043026;28;20102;-70
2023/10/18 13:21:30;;;;;;;17.02;4.00;;;;;;;;;;5035758;28;20049;-70
2023/10/18 13:23:59;;;;;;;8.30;4.05;;;;;;;;;;5030271;28;20046;-69
2023/10/18 13:26:31;;;;;;;6.85;4.15;;;;;;;;;;5032607;28;20057;-68
2023/10/18 13:29:00;;;;;;;6.78;4.65;;;;;;;;;;5031563;28;20041;-67
2023/10/18 13:31:30;;;;;;;6.93;3.60;;;;;;;;;;5037594;28;20106;-71
2023/10/18 13:33:58;;;;;;;8.90;4.20;;;;;;;;;;5031896;28;20488;-70
2023/10/18 13:36:26;;;;;;;7.07;3.67;;;;;;;;;;5028158;28;20049;-70
2023/10/18 13:38:53;;;;;;;9.50;3.15;;;;;;;;;;5034425;28;20517;-68
2023/10/18 13:41:20;;;;;;;10.48;4.28;;;;;;;;;;5035051;28;20129;-67
2023/10/18 13:43:47;;;;;;;9.25;5.15;;;;;;;;;;5032999;28;20056;-68
2023/10/18 13:46:20;;;;;;;9.30;5.07;;;;;;;;;;5042184;28;20132;-69
2023/10/18 13:48:49;;;;;;;9.93;4.35;;;;;;;;;;5038384;28;20140;-67
2023/10/18 13:51:17;;;;;;;6.00;4.35;;;;;;;;;;5034285;28;20077;-71
2023/10/18 13:53:43;;;;;;;11.18;4.18;;;;;;;;;;5039128;28;20102;-71
2023/10/18 13:56:11;;;;;;;8.93;4.72;;;;;;;;;;5035065;28;20041;-70
2023/10/18 13:58:39;;;;;;;9.10;3.53;;;;;;;;;;5032119;28;20045;-70
2023/10/18 14:01:14;;;;;;;7.53;4.22;;;;;;;;;;5030363;28;20528;-67
2023/10/18 14:03:42;;;;;;;6.78;3.85;;;;;;;;;;5032097;28;20107;-66
2023/10/18 14:06:10;;;;;;;5.75;3.75;;;;;;;;;;5039190;28;20072;-69
2023/10/18 14:08:36;;;;;;;6.47;3.92;;;;;;;;;;5035815;28;20057;-64
2023/10/18 14:11:04;;;;;;;5.28;3.60;;;;;;;;;;5030771;28;20521;-65
2023/10/18 14:13:31;;;;;;;6.85;3.65;;;;;;;;;;5032367;28;20081;-69
2023/10/18 14:15:58;;;;;;;10.40;4.38;;;;;;;;;;5032188;28;20081;-63
2023/10/18 14:18:25;;;;;;;6.55;3.47;;;;;;;;;;5044436;28;20085;-65
2023/10/18 14:20:52;;;;;;;6.82;4.72;;;;;;;;;;5045261;28;20786;-67
2023/10/18 14:23:23;;;;;;;6.70;4.15;;;;;;;;;;5040818;28;20054;-66
2023/10/18 14:25:50;;;;;;;6.18;4.05;;;;;;;;;;5039069;28;20068;-67
2023/10/18 14:28:16;;;;;;;7.60;4.35;;;;;;;;;;5049815;28;20660;-64
2023/10/18 14:30:46;;;;;;;7.88;3.95;;;;;;;;;;5049715;28;20128;-68
2023/10/18 14:33:13;;;;;;;10.23;4.80;;;;;;;;;;5050004;28;20088;-66
2023/10/18 14:35:49;;;;;;;10.77;4.50;;;;;;;;;;5043551;28;20048;-69
2023/10/18 14:38:17;;;;;;;8.07;4.95;;;;;;;;;;5044340;28;20076;-65
2023/10/18 14:40:44;;;;;;;16.25;5.15;;;;;;;;;;5033882;28;20049;-69
2023/10/18 14:43:31;;;;;;;9.32;4.45;;;;;;;;;;5042649;28;20068;-66
2023/10/18 14:46:01;;;;;;;7.95;4.50;;;;;;;;;;5040627;28;20048;-67
2023/10/18 14:48:27;;;;;;;6.75;4.10;;;;;;;;;;5029521;28;20076;-67
2023/10/18 14:50:54;;;;;;;11.75;5.35;;;;;;;;;;5030413;28;20482;-66
2023/10/18 14:53:22;;;;;;;11.32;5.82;;;;;;;;;;5030378;28;20049;-65
2023/10/18 14:55:48;;;;;;;10.18;5.03;;;;;;;;;;5049225;28;20400;-64
2023/10/18 14:58:15;;;;;;;11.50;5.05;;;;;;;;;;5046333;28;20128;-64
2023/10/18 15:00:45;;;;;;;12.38;4.97;;;;;;;;;;5049167;28;20120;-66
2023/10/18 15:03:12;;;;;;;10.13;5.10;;;;;;;;;;5038151;28;20620;-64
2023/10/18 15:05:39;;;;;;;12.65;6.10;;;;;;;;;;5050829;28;20080;-66
2023/10/18 15:08:05;;;;;;;9.95;5.25;;;;;;;;;;5034590;28;20128;-64
2023/10/18 15:10:32;;;;;;;8.77;5.47;;;;;;;;;;5036593;28;20079;-66
2023/10/18 15:12:59;;;;;;;11.73;6.20;;;;;;;;;;5038952;28;20437;-66
2023/10/18 15:15:27;;;;;;;8.07;5.75;;;;;;;;;;5047716;28;20125;-67
2023/10/18 15:17:55;;;;;;;11.57;5.38;;;;;;;;;;5044712;28;20085;-65
2023/10/18 15:20:22;;;;;;;8.73;5.75;;;;;;;;;;5039759;28;20056;-66
2023/10/18 15:22:48;;;;;;;17.60;6.55;;;;;;;;;;5027838;28;20053;-64
2023/10/18 15:25:16;;;;;;;14.82;6.28;;;;;;;;;;5031505;28;20057;-64
2023/10/18 15:27:43;;;;;;;11.25;6.05;;;;;;;;;;5031721;28;20053;-65
2023/10/18 15:30:10;;;;;;;10.80;6.35;;;;;;;;;;5028542;28;20052;-65
2023/10/18 15:32:36;;;;;;;11.98;5.97;;;;;;;;;;5028770;28;20041;-66
2023/10/18 15:35:05;;;;;;;14.10;6.13;;;;;;;;;;5029242;28;20544;-65
2023/10/18 15:37:31;;;;;;;13.23;6.68;;;;;;;;;;5028697;28;20045;-64
2023/10/18 15:39:58;;;;;;;12.23;5.93;;;;;;;;;;5029128;28;20052;-65
2023/10/18 15:42:25;;;;;;;14.27;6.82;;;;;;;;;;5028589;28;20095;-65
2023/10/18 15:44:55;;;;;;;14.50;6.75;;;;;;;;;;5027732;28;20130;-64
2023/10/18 15:47:23;;;;;;;8.93;6.78;;;;;;;;;;5029225;28;20099;-64
2023/10/18 15:49:52;;;;;;;9.27;6.43;;;;;;;;;;5049595;28;20080;-65
2023/10/18 15:52:20;;;;;;;13.88;6.55;;;;;;;;;;5037321;28;20056;-68
2023/10/18 15:54:49;;;;;;;16.08;7.18;;;;;;;;;;5033702;28;20053;-66
2023/10/18 15:57:15;;;;;;;27.58;7.45;;;;;;;;;;5053956;28;20048;-66
2023/10/18 15:59:42;;;;;;;14.43;7.47;;;;;;;;;;5036432;28;20099;-65
2023/10/18 16:02:11;;;;;;;17.63;8.15;;;;;;;;;;5026825;28;20064;-68
2023/10/18 16:04:38;;;;;;;15.48;8.25;;;;;;;;;;5027457;28;20125;-67